createdAt,value
2018-07-04T00:00:58.060Z,55.50
2018-07-04T00:03:37.568Z,56.61
2018-07-04T00:06:17.048Z,56.43
2018-07-04T00:08:56.504Z,57.22
2018-07-04T00:11:35.861Z,56.36
2018-07-04T00:14:15.222Z,56.69
2018-07-04T00:16:54.561Z,56.34
2018-07-04T00:19:34.028Z,56.40
2018-07-04T00:22:13.444Z,56.79
2018-07-04T00:24:52.867Z,55.86
2018-07-04T00:27:32.269Z,56.24
2018-07-04T00:30:11.759Z,56.78
2018-07-04T00:32:50.964Z,56.25
2018-07-04T00:35:30.366Z,56.75
2018-07-04T00:38:09.845Z,56.87
2018-07-04T00:40:49.267Z,56.82
2018-07-04T00:43:28.611Z,56.68
2018-07-04T00:46:08.038Z,56.81
2018-07-04T00:48:47.335Z,57.06
2018-07-04T00:51:26.787Z,57.29
2018-07-04T00:54:06.273Z,57.21
2018-07-04T00:56:45.654Z,57.93
2018-07-04T00:59:25.072Z,58.56
2018-07-04T01:02:04.539Z,58.45
2018-07-04T01:04:43.815Z,58.90
2018-07-04T01:07:23.355Z,58.25
2018-07-04T01:10:02.680Z,58.85
2018-07-04T01:12:42.236Z,59.46
2018-07-04T01:15:21.601Z,61.12
2018-07-04T01:18:01.012Z,60.35
2018-07-04T01:20:45.800Z,61.04
2018-07-04T01:23:25.280Z,60.42
2018-07-04T01:26:04.689Z,61.61
2018-07-04T01:28:48.252Z,61.38
2018-07-04T01:31:27.697Z,62.03
2018-07-04T01:34:07.351Z,61.57
2018-07-04T01:36:47.095Z,62.33
2018-07-04T01:39:26.831Z,61.96
2018-07-04T01:42:06.191Z,61.90
2018-07-04T01:44:45.776Z,61.85
2018-07-04T01:47:25.252Z,62.44
2018-07-04T01:50:04.660Z,62.62
2018-07-04T01:52:44.219Z,61.95
2018-07-04T01:55:23.685Z,61.80
2018-07-04T01:58:03.086Z,61.45
2018-07-04T02:00:42.591Z,59.12
2018-07-04T02:03:22.051Z,60.10
2018-07-04T02:06:01.365Z,61.55
2018-07-04T02:08:40.881Z,60.08
2018-07-04T02:11:20.232Z,57.64
2018-07-04T02:13:59.563Z,57.36
2018-07-04T02:16:39.002Z,57.16
2018-07-04T02:19:18.579Z,57.86
2018-07-04T02:21:57.995Z,55.88
2018-07-04T02:24:37.432Z,54.60
2018-07-04T02:27:16.823Z,54.23
2018-07-04T02:29:56.227Z,53.66
2018-07-04T02:32:35.693Z,53.41
2018-07-04T02:35:15.177Z,53.53
2018-07-04T02:37:54.542Z,56.16
2018-07-04T02:40:33.881Z,58.35
2018-07-04T02:43:13.339Z,57.71
2018-07-04T02:45:52.596Z,59.42
2018-07-04T02:48:31.912Z,59.36
2018-07-04T02:51:11.376Z,60.33
2018-07-04T02:53:50.903Z,60.54
2018-07-04T02:56:30.367Z,59.62
2018-07-04T02:59:09.835Z,56.02
2018-07-04T03:01:49.223Z,55.29
2018-07-04T03:04:28.691Z,54.18
2018-07-04T03:07:08.097Z,53.94
2018-07-04T03:09:47.455Z,53.23
2018-07-04T03:12:26.868Z,53.44
2018-07-04T03:15:06.091Z,53.36
2018-07-04T03:17:45.435Z,52.68
2018-07-04T03:20:24.815Z,52.78
2018-07-04T03:23:04.154Z,52.51
2018-07-04T03:25:43.583Z,52.59
2018-07-04T03:28:22.928Z,56.28
2018-07-04T03:31:02.300Z,59.15
2018-07-04T03:33:41.667Z,60.23
2018-07-04T03:36:21.043Z,61.54
2018-07-04T03:39:00.430Z,61.15
2018-07-04T03:41:39.710Z,61.71
2018-07-04T03:44:19.302Z,61.55
2018-07-04T03:46:58.627Z,62.64
2018-07-04T03:49:37.961Z,62.56
2018-07-04T03:52:17.398Z,62.25
2018-07-04T03:54:56.823Z,64.21
2018-07-04T03:57:36.218Z,63.65
2018-07-04T04:00:15.600Z,64.58
2018-07-04T04:02:54.962Z,64.92
2018-07-04T04:05:34.231Z,64.26
2018-07-04T04:08:13.767Z,64.36
2018-07-04T04:10:53.207Z,64.94
2018-07-04T04:13:32.534Z,65.56
2018-07-04T04:16:11.936Z,65.65
2018-07-04T04:18:51.440Z,65.15
2018-07-04T04:21:30.764Z,64.28
2018-07-04T04:24:10.231Z,64.09
2018-07-04T04:26:49.605Z,63.90
2018-07-04T04:29:29.072Z,63.55
2018-07-04T04:32:08.395Z,63.58
2018-07-04T04:34:47.824Z,62.22
2018-07-04T04:37:27.315Z,63.07
2018-07-04T04:40:06.727Z,63.01
2018-07-04T04:42:46.090Z,62.54
2018-07-04T04:45:25.656Z,62.83
2018-07-04T04:48:05.151Z,62.71
2018-07-04T04:50:44.531Z,64.02
2018-07-04T04:53:24.016Z,63.10
2018-07-04T04:56:03.466Z,61.63
2018-07-04T04:58:42.859Z,56.24
2018-07-04T05:01:22.303Z,55.58
2018-07-04T05:04:01.787Z,54.19
2018-07-04T05:06:41.238Z,53.28
2018-07-04T05:09:20.578Z,53.01
2018-07-04T05:11:59.956Z,52.11
2018-07-04T05:14:39.482Z,52.21
2018-07-04T05:17:18.808Z,52.81
2018-07-04T05:19:58.253Z,52.14
2018-07-04T05:22:37.779Z,51.42
2018-07-04T05:25:17.326Z,51.52
2018-07-04T05:27:56.687Z,51.10
2018-07-04T05:30:36.093Z,51.68
2018-07-04T05:33:15.445Z,57.10
2018-07-04T05:35:54.867Z,57.32
2018-07-04T05:41:25.212Z,57.19
2018-07-04T05:44:04.615Z,56.35
2018-07-04T05:46:43.963Z,55.27
2018-07-04T05:49:23.324Z,56.37
2018-07-04T05:52:02.693Z,57.43
2018-07-04T05:54:42.104Z,55.98
2018-07-04T05:57:21.487Z,54.58
2018-07-04T06:00:00.926Z,50.31
2018-07-04T06:02:40.349Z,49.76
2018-07-04T06:05:19.756Z,49.18
2018-07-04T06:07:59.471Z,49.21
2018-07-04T06:10:38.938Z,49.15
2018-07-04T06:13:18.558Z,49.47
2018-07-04T06:15:58.023Z,49.54
2018-07-04T06:18:37.336Z,50.46
2018-07-04T06:21:16.992Z,50.41
2018-07-04T06:23:56.544Z,49.86
2018-07-04T06:26:35.794Z,49.71
2018-07-04T06:29:15.160Z,49.71
2018-07-04T06:31:54.752Z,48.56
2018-07-04T06:34:34.203Z,48.34
2018-07-04T06:37:13.624Z,48.36
2018-07-04T06:39:40.813Z,48.50
2018-07-04T06:42:08.099Z,48.25
2018-07-04T06:44:35.199Z,46.95
2018-07-04T06:47:02.440Z,47.89
2018-07-04T06:49:29.523Z,47.84
2018-07-04T06:51:56.598Z,46.49
2018-07-04T06:54:23.809Z,46.79
2018-07-04T06:56:51.146Z,46.85
2018-07-04T06:59:18.223Z,48.82
2018-07-04T07:01:45.356Z,47.93
2018-07-04T07:04:24.892Z,47.21
2018-07-04T07:07:04.250Z,46.62
2018-07-04T07:09:43.671Z,43.65
2018-07-04T07:12:23.158Z,42.65
2018-07-04T07:15:02.795Z,43.33
2018-07-04T07:17:42.114Z,41.86
2018-07-04T07:20:21.599Z,41.56
2018-07-04T07:23:00.900Z,41.66
2018-07-04T07:25:40.232Z,41.46
2018-07-04T07:28:19.641Z,41.34
2018-07-04T07:30:59.070Z,41.13
2018-07-04T07:33:38.618Z,40.46
2018-07-04T07:36:18.190Z,41.39
2018-07-04T07:38:57.628Z,41.65
2018-07-04T07:41:37.032Z,40.71
2018-07-04T07:44:16.584Z,40.11
2018-07-04T07:46:56.069Z,40.31
2018-07-04T07:49:35.436Z,42.15
2018-07-04T07:52:14.911Z,40.64
2018-07-04T07:54:54.300Z,38.40
2018-07-04T07:57:33.709Z,38.67
2018-07-04T08:00:13.236Z,39.57
2018-07-04T08:02:52.703Z,38.85
2018-07-04T08:05:36.834Z,38.47
2018-07-04T08:08:17.050Z,38.57
2018-07-04T08:10:56.563Z,38.39
2018-07-04T08:13:36.137Z,37.48
2018-07-04T08:16:15.716Z,38.26
2018-07-04T08:18:55.132Z,36.56
2018-07-04T08:21:34.523Z,38.30
2018-07-04T08:24:14.296Z,37.28
2018-07-04T08:26:53.930Z,36.83
2018-07-04T08:29:33.507Z,35.93
2018-07-04T08:32:12.937Z,36.92
2018-07-04T08:34:52.391Z,35.98
2018-07-04T08:37:31.765Z,36.43
2018-07-04T08:40:11.164Z,35.49
2018-07-04T08:42:50.896Z,36.72
2018-07-04T08:45:30.447Z,35.73
2018-07-04T08:48:10.095Z,38.04
2018-07-04T08:50:49.587Z,37.26
2018-07-04T08:53:29.011Z,37.41
2018-07-04T08:56:08.472Z,37.22
2018-07-04T08:58:47.977Z,37.37
2018-07-04T09:01:27.684Z,38.00
2018-07-04T09:04:07.277Z,36.63
2018-07-04T09:06:46.840Z,36.45
2018-07-04T09:09:26.408Z,36.38
2018-07-04T09:15:08.524Z,36.29
2018-07-04T09:17:47.904Z,34.80
2018-07-04T09:20:27.367Z,33.48
2018-07-04T09:23:06.779Z,33.54
2018-07-04T09:25:46.187Z,33.96
2018-07-04T09:28:25.606Z,34.96
2018-07-04T09:31:05.019Z,31.85
2018-07-04T09:33:44.562Z,32.89
2018-07-04T09:36:23.952Z,33.45
2018-07-04T09:39:03.371Z,32.36
2018-07-04T09:41:42.743Z,33.29
2018-07-04T09:44:22.096Z,35.64
2018-07-04T09:47:01.537Z,34.14
2018-07-04T09:49:41.057Z,33.04
2018-07-04T09:52:20.360Z,32.18
2018-07-04T09:54:59.634Z,33.45
2018-07-04T09:57:39.041Z,32.20
2018-07-04T10:00:22.528Z,34.38
2018-07-04T10:03:01.879Z,34.94
2018-07-04T10:05:41.253Z,35.98
2018-07-04T10:08:20.580Z,35.40
2018-07-04T10:11:00.040Z,35.80
2018-07-04T10:13:39.369Z,34.92
2018-07-04T10:16:18.712Z,35.00
2018-07-04T10:18:58.113Z,33.74
2018-07-04T10:21:37.703Z,33.72
2018-07-04T10:24:17.448Z,35.28
2018-07-04T10:26:56.770Z,34.07
2018-07-04T10:29:36.168Z,34.35
2018-07-04T10:32:18.431Z,33.94
2018-07-04T10:34:57.982Z,34.76
2018-07-04T10:37:37.386Z,35.37
2018-07-04T10:40:16.823Z,35.16
2018-07-04T10:42:56.221Z,35.78
2018-07-04T10:45:36.744Z,34.57
2018-07-04T10:48:19.464Z,33.48
2018-07-04T10:50:58.821Z,34.64
2018-07-04T10:53:38.283Z,35.25
2018-07-04T10:56:17.694Z,35.12
2018-07-04T10:58:57.880Z,35.75
2018-07-04T11:01:37.259Z,35.39
2018-07-04T11:04:17.808Z,36.42
2018-07-04T11:06:57.852Z,35.34
2018-07-04T11:09:38.211Z,35.19
2018-07-04T11:12:17.540Z,36.85
2018-07-04T11:14:57.534Z,35.80
2018-07-04T11:17:36.907Z,36.20
2018-07-04T11:20:16.356Z,33.99
2018-07-04T11:22:55.869Z,35.00
2018-07-04T11:25:35.223Z,33.29
2018-07-04T11:28:14.658Z,34.26
2018-07-04T11:30:58.051Z,34.35
2018-07-04T11:33:37.619Z,34.00
2018-07-04T11:36:17.155Z,34.99
2018-07-04T11:38:56.531Z,34.31
2018-07-04T11:41:35.739Z,33.86
2018-07-04T11:44:15.264Z,34.09
2018-07-04T11:46:42.409Z,35.26
2018-07-04T11:49:09.561Z,33.76
2018-07-04T11:51:37.445Z,33.41
2018-07-04T11:54:04.615Z,34.05
2018-07-04T11:56:31.763Z,34.19
2018-07-04T11:58:58.877Z,34.12
2018-07-04T12:01:26.028Z,32.68
2018-07-04T12:04:05.378Z,32.47
2018-07-04T12:06:44.756Z,31.58
2018-07-04T12:09:11.875Z,31.11
2018-07-04T12:11:39.945Z,31.54
2018-07-04T12:14:07.047Z,31.10
2018-07-04T12:16:34.167Z,29.67
2018-07-04T12:19:01.256Z,31.94
2018-07-04T12:21:28.386Z,30.25
2018-07-04T12:23:55.462Z,31.56
2018-07-04T12:26:22.548Z,30.87
2018-07-04T12:28:49.627Z,31.04
2018-07-04T12:31:16.721Z,31.06
2018-07-04T12:33:43.799Z,30.93
2018-07-04T12:36:10.892Z,30.35
2018-07-04T12:38:37.962Z,30.68
2018-07-04T12:41:05.068Z,30.28
2018-07-04T12:43:32.296Z,29.31
2018-07-04T12:45:59.296Z,31.63
2018-07-04T12:48:26.362Z,29.36
2018-07-04T12:50:53.492Z,30.38
2018-07-04T12:53:20.591Z,30.73
2018-07-04T12:55:59.929Z,30.77
2018-07-04T12:58:39.432Z,30.26
2018-07-04T13:01:18.768Z,30.15
2018-07-04T13:03:58.160Z,30.49
2018-07-04T13:06:37.692Z,29.74
2018-07-04T13:09:16.959Z,30.29
2018-07-04T13:11:56.275Z,31.09
2018-07-04T13:14:35.630Z,31.67
2018-07-04T13:17:15.132Z,31.72
2018-07-04T13:19:54.492Z,31.82
2018-07-04T13:22:33.827Z,31.86
2018-07-04T13:25:14.921Z,31.31
2018-07-04T13:27:54.279Z,32.13
2018-07-04T13:30:33.550Z,31.56
2018-07-04T13:33:13.037Z,33.15
2018-07-04T13:35:52.456Z,33.14
2018-07-04T13:38:31.856Z,31.54
2018-07-04T13:41:11.371Z,32.30
2018-07-04T13:43:50.652Z,33.76
2018-07-04T13:46:30.018Z,37.04
2018-07-04T13:49:09.637Z,38.81
2018-07-04T13:51:49.141Z,40.37
2018-07-04T13:54:28.587Z,40.42
2018-07-04T13:57:08.179Z,42.62
2018-07-04T13:59:47.555Z,43.10
2018-07-04T14:10:46.925Z,45.55
2018-07-04T14:33:03.509Z,48.17
2018-07-04T14:50:13.895Z,51.09
2018-07-04T14:55:57.542Z,51.11
2018-07-04T14:58:36.887Z,52.38
2018-07-04T15:01:16.303Z,51.56
2018-07-04T15:03:55.713Z,50.74
2018-07-04T15:06:35.283Z,51.11
2018-07-04T15:09:14.607Z,53.23
2018-07-04T15:11:53.908Z,52.42
2018-07-04T15:14:33.335Z,52.03
2018-07-04T15:17:12.722Z,52.23
2018-07-04T15:19:52.048Z,53.16
2018-07-04T15:22:31.332Z,52.68
2018-07-04T15:25:10.644Z,53.91
2018-07-04T15:27:50.085Z,54.07
2018-07-04T15:30:29.448Z,53.75
2018-07-04T15:36:01.148Z,55.03
2018-07-04T15:38:40.559Z,54.98
2018-07-04T15:41:19.985Z,54.50
2018-07-04T15:43:59.460Z,54.91
2018-07-04T15:46:38.767Z,54.57
2018-07-04T15:49:19.011Z,53.67
2018-07-04T15:51:58.675Z,53.28
2018-07-04T15:54:38.792Z,54.13
2018-07-04T15:57:18.293Z,54.02
2018-07-04T15:59:57.620Z,54.59
2018-07-04T16:02:36.931Z,55.58
2018-07-04T16:05:16.440Z,55.12
2018-07-04T16:07:55.677Z,55.55
2018-07-04T16:10:35.139Z,56.02
2018-07-04T16:13:14.527Z,55.97
2018-07-04T16:15:53.909Z,57.26
2018-07-04T16:18:33.231Z,57.21
2018-07-04T16:21:12.790Z,56.83
2018-07-04T16:23:52.206Z,56.05
2018-07-04T16:26:31.540Z,56.21
2018-07-04T16:29:10.998Z,56.31
2018-07-04T16:31:50.280Z,56.29
2018-07-04T16:34:29.520Z,56.35
2018-07-04T16:37:08.827Z,57.07
2018-07-04T16:39:48.151Z,56.14
2018-07-04T16:42:27.522Z,56.08
2018-07-04T16:45:06.815Z,55.79
2018-07-04T16:47:46.363Z,55.77
2018-07-04T16:50:25.840Z,56.26
2018-07-04T16:53:05.148Z,55.71
2018-07-04T16:55:44.532Z,56.64
2018-07-04T16:58:23.904Z,55.10
2018-07-04T17:01:03.320Z,56.15
2018-07-04T17:03:42.670Z,55.74
2018-07-04T17:06:21.919Z,56.46
2018-07-04T17:09:01.265Z,57.19
2018-07-04T17:11:40.559Z,55.70
2018-07-04T17:14:19.989Z,55.64
2018-07-04T17:16:59.219Z,56.69
2018-07-04T17:19:38.827Z,57.85
2018-07-04T17:22:18.151Z,57.42
2018-07-04T17:24:57.629Z,56.95
2018-07-04T17:27:37.063Z,57.57
2018-07-04T17:30:16.648Z,55.86
2018-07-04T17:39:51.276Z,56.46
2018-07-04T17:42:30.878Z,54.72
2018-07-04T17:45:10.240Z,57.03
2018-07-04T17:47:50.194Z,57.92
2018-07-04T17:50:29.938Z,57.72
2018-07-04T17:53:09.553Z,58.77
2018-07-04T17:55:48.948Z,58.77
2018-07-04T17:58:28.823Z,59.52
2018-07-04T18:01:10.094Z,60.20
2018-07-04T18:03:50.675Z,60.35
2018-07-04T18:06:32.726Z,59.32
2018-07-04T18:12:16.990Z,59.58
2018-07-04T18:14:56.988Z,59.24
2018-07-04T18:17:37.321Z,58.56
2018-07-04T18:20:18.421Z,59.70
2018-07-04T18:22:59.440Z,60.83
2018-07-04T18:26:29.117Z,59.30
2018-07-04T18:29:11.246Z,59.49
2018-07-04T18:31:51.439Z,60.03
2018-07-04T18:34:35.678Z,60.73
2018-07-04T18:37:16.268Z,61.16
2018-07-04T18:39:55.715Z,61.44
2018-07-04T18:42:35.539Z,61.66
2018-07-04T18:45:17.266Z,61.35
2018-07-04T18:47:58.875Z,60.90
2018-07-04T18:50:42.115Z,62.12
2018-07-04T18:53:21.621Z,62.39
2018-07-04T18:56:01.195Z,62.90
2018-07-04T18:58:40.713Z,62.61
2018-07-04T19:01:20.483Z,63.88
2018-07-04T19:04:01.357Z,62.79
2018-07-04T19:06:44.414Z,63.01
2018-07-04T19:09:25.359Z,63.68
2018-07-04T19:12:08.268Z,63.47
2018-07-04T19:14:49.998Z,64.52
2018-07-04T19:17:29.987Z,63.97
2018-07-04T19:20:09.783Z,63.57
2018-07-04T19:22:50.458Z,63.95
2018-07-04T19:25:32.899Z,63.70
2018-07-04T19:28:18.445Z,63.52
2018-07-04T19:33:49.035Z,64.81
2018-07-04T19:36:29.920Z,65.20
2018-07-04T19:39:09.669Z,64.20
2018-07-04T19:41:49.510Z,64.20
2018-07-04T19:44:31.143Z,63.85
2018-07-04T19:47:12.906Z,65.31
2018-07-04T19:50:06.987Z,66.32
2018-07-04T19:52:49.446Z,66.20
2018-07-04T19:55:30.087Z,66.72
2018-07-04T19:58:09.767Z,68.22
2018-07-04T20:00:50.200Z,66.75
2018-07-04T20:03:30.880Z,67.03
2018-07-04T20:06:11.561Z,66.27
2018-07-04T20:08:52.528Z,66.40
2018-07-04T20:11:33.285Z,66.88
2018-07-04T20:14:14.697Z,66.76
2018-07-04T20:16:54.193Z,67.99
2018-07-04T20:19:34.427Z,67.82
2018-07-04T20:22:14.877Z,66.66
2018-07-04T20:24:55.066Z,67.33
2018-07-04T20:27:35.330Z,66.69
2018-07-04T20:30:21.669Z,68.46
2018-07-04T20:36:18.214Z,68.37
2018-07-04T20:38:57.815Z,68.81
2018-07-04T20:41:37.411Z,68.92
2018-07-04T20:44:19.163Z,69.65
2018-07-04T20:46:58.868Z,69.37
2018-07-04T20:49:39.296Z,69.64
2018-07-04T20:52:18.819Z,70.50
2018-07-04T20:54:59.918Z,69.34
2018-07-04T20:57:41.235Z,68.85
2018-07-04T21:00:21.151Z,68.63
2018-07-04T21:03:03.517Z,68.79
2018-07-04T21:05:46.234Z,70.16
2018-07-04T21:08:25.742Z,70.87
2018-07-04T21:11:06.018Z,70.52
2018-07-04T21:13:46.018Z,70.24
2018-07-04T21:16:25.868Z,71.99
2018-07-04T21:19:07.379Z,72.16
2018-07-04T21:21:58.831Z,72.90
2018-07-04T21:24:41.789Z,73.86
2018-07-04T21:27:22.123Z,73.81
2018-07-04T21:30:01.660Z,72.73
2018-07-04T21:32:41.904Z,71.60
2018-07-04T21:35:21.349Z,72.30
2018-07-04T21:38:00.901Z,72.56
2018-07-04T21:40:41.763Z,72.00
2018-07-04T21:43:22.416Z,71.47
2018-07-04T21:46:02.981Z,71.51
2018-07-04T21:48:42.587Z,71.57
2018-07-04T21:51:22.118Z,71.57
2018-07-04T21:54:02.077Z,71.38
2018-07-04T21:56:41.513Z,71.47
2018-07-04T21:59:21.263Z,72.37
2018-07-04T22:02:01.640Z,74.58
2018-07-04T22:04:42.218Z,76.28
2018-07-04T22:07:23.167Z,76.14
2018-07-04T22:10:03.384Z,75.34
2018-07-04T22:12:45.258Z,75.01
2018-07-04T22:15:26.764Z,75.59
2018-07-04T22:18:07.503Z,77.68
2018-07-04T22:20:46.945Z,77.20
2018-07-04T22:23:26.962Z,75.99
2018-07-04T22:26:07.602Z,74.79
2018-07-04T22:28:47.821Z,74.12
2018-07-04T22:31:29.096Z,75.03
2018-07-04T22:34:10.881Z,75.04
2018-07-04T22:36:54.361Z,75.22
2018-07-04T22:39:34.610Z,74.22
2018-07-04T22:42:15.039Z,75.68
2018-07-04T22:44:56.882Z,78.15
2018-07-04T22:47:37.469Z,76.79
2018-07-04T22:50:16.975Z,76.49
2018-07-04T23:00:50.407Z,78.08
2018-07-04T23:03:29.941Z,77.93
2018-07-04T23:06:09.459Z,79.67
2018-07-04T23:08:48.782Z,80.42
2018-07-04T23:11:28.276Z,79.89
2018-07-04T23:14:07.735Z,81.16
2018-07-04T23:16:47.092Z,79.23
2018-07-04T23:19:26.442Z,79.03
2018-07-04T23:22:05.863Z,79.94
2018-07-04T23:24:45.268Z,81.09
2018-07-04T23:27:24.536Z,79.32
2018-07-04T23:30:04.012Z,79.69
2018-07-04T23:32:43.347Z,80.34
2018-07-04T23:35:22.972Z,78.97
2018-07-04T23:38:02.427Z,80.72
2018-07-04T23:40:41.703Z,81.57
2018-07-04T23:43:21.242Z,81.43
2018-07-04T23:46:00.597Z,82.25
2018-07-04T23:48:40.001Z,82.68
2018-07-04T23:51:19.648Z,80.95
2018-07-04T23:53:59.163Z,81.17
2018-07-04T23:56:38.483Z,80.52
2018-07-04T23:59:17.936Z,80.31
